createdAt,value
2022-07-31T00:01:16.908Z,100.00
2022-07-31T00:03:45.162Z,100.00
2022-07-31T00:06:13.328Z,100.00
2022-07-31T00:08:41.335Z,100.00
2022-07-31T00:11:15.521Z,100.00
2022-07-31T00:13:56.510Z,100.00
2022-07-31T00:16:31.772Z,100.00
2022-07-31T00:19:06.091Z,100.00
2022-07-31T00:21:33.195Z,100.00
2022-07-31T00:24:04.627Z,100.00
2022-07-31T00:26:32.108Z,100.00
2022-07-31T00:29:00.345Z,100.00
2022-07-31T00:31:27.405Z,100.00
2022-07-31T00:34:00.222Z,100.00
2022-07-31T00:36:51.136Z,100.00
2022-07-31T00:39:18.031Z,100.00
2022-07-31T00:41:47.032Z,100.00
2022-07-31T00:44:15.193Z,100.00
2022-07-31T00:46:42.656Z,100.00
2022-07-31T00:49:12.609Z,100.00
2022-07-31T00:51:42.761Z,100.00
2022-07-31T00:54:23.294Z,100.00
2022-07-31T00:56:51.768Z,100.00
2022-07-31T00:59:24.812Z,100.00
2022-07-31T01:01:53.134Z,100.00
2022-07-31T01:04:22.231Z,100.00
2022-07-31T01:06:51.719Z,100.00
2022-07-31T01:09:18.926Z,100.00
2022-07-31T01:11:50.045Z,100.00
2022-07-31T01:14:24.763Z,100.00
2022-07-31T01:17:00.585Z,100.00
2022-07-31T01:19:39.638Z,100.00
2022-07-31T01:22:46.260Z,100.00
2022-07-31T01:25:47.654Z,100.00
2022-07-31T01:29:10.294Z,100.00
2022-07-31T01:31:48.319Z,100.00
2022-07-31T01:34:47.138Z,100.00
2022-07-31T01:37:34.753Z,100.00
2022-07-31T01:40:17.223Z,100.00
2022-07-31T01:42:51.233Z,100.00
2022-07-31T01:45:22.769Z,100.00
2022-07-31T01:47:54.184Z,100.00
2022-07-31T01:50:42.598Z,100.00
2022-07-31T01:53:19.057Z,100.00
2022-07-31T01:56:01.932Z,100.00
2022-07-31T01:58:43.204Z,100.00
2022-07-31T02:01:13.863Z,100.00
2022-07-31T02:03:43.829Z,100.00
2022-07-31T02:06:15.539Z,100.00
2022-07-31T02:08:46.507Z,100.00
2022-07-31T02:11:18.927Z,100.00
2022-07-31T02:13:48.942Z,100.00
2022-07-31T02:16:26.478Z,100.00
2022-07-31T02:18:55.818Z,100.00
2022-07-31T02:21:29.286Z,100.00
2022-07-31T02:24:10.680Z,100.00
2022-07-31T02:26:40.808Z,100.00
2022-07-31T02:29:20.120Z,100.00
2022-07-31T02:32:01.990Z,100.00
2022-07-31T02:34:40.074Z,100.00
2022-07-31T02:37:15.592Z,100.00
2022-07-31T02:39:49.554Z,100.00
2022-07-31T02:42:21.800Z,100.00
2022-07-31T02:44:52.933Z,100.00
2022-07-31T02:47:20.770Z,100.00
2022-07-31T02:49:50.041Z,100.00
2022-07-31T02:52:23.165Z,100.00
2022-07-31T02:54:51.182Z,100.00
2022-07-31T02:57:25.401Z,100.00
2022-07-31T02:59:54.454Z,100.00
2022-07-31T03:02:22.725Z,100.00
2022-07-31T03:05:02.724Z,100.00
2022-07-31T03:07:30.135Z,100.00
2022-07-31T03:09:58.133Z,100.00
2022-07-31T03:12:27.405Z,100.00
2022-07-31T03:14:58.288Z,100.00
2022-07-31T03:17:38.425Z,100.00
2022-07-31T03:20:11.157Z,100.00
2022-07-31T03:22:40.191Z,100.00
2022-07-31T03:25:21.293Z,100.00
2022-07-31T03:28:00.588Z,100.00
2022-07-31T03:30:29.854Z,100.00
2022-07-31T03:32:57.661Z,100.00
2022-07-31T03:35:27.873Z,100.00
2022-07-31T03:37:54.970Z,100.00
2022-07-31T03:40:26.286Z,100.00
2022-07-31T03:42:56.999Z,100.00
2022-07-31T03:45:27.256Z,100.00
2022-07-31T03:47:57.316Z,100.00
2022-07-31T03:50:25.467Z,100.00
2022-07-31T03:52:55.645Z,100.00
2022-07-31T03:55:28.802Z,100.00
2022-07-31T03:57:58.835Z,100.00
2022-07-31T04:00:28.234Z,100.00
2022-07-31T04:02:58.724Z,100.00
2022-07-31T04:05:40.451Z,100.00
2022-07-31T04:08:10.927Z,100.00
2022-07-31T04:10:38.606Z,100.00
2022-07-31T04:13:43.619Z,100.00
2022-07-31T04:16:16.824Z,100.00
2022-07-31T04:18:54.805Z,100.00
2022-07-31T04:21:26.265Z,100.00
2022-07-31T04:23:54.285Z,100.00
2022-07-31T04:26:26.221Z,100.00
2022-07-31T04:28:53.670Z,100.00
2022-07-31T04:31:20.636Z,100.00
2022-07-31T04:33:54.663Z,100.00
2022-07-31T04:36:30.188Z,100.00
2022-07-31T04:39:01.222Z,100.00
2022-07-31T04:41:28.897Z,100.00
2022-07-31T04:44:00.416Z,100.00
2022-07-31T04:46:30.412Z,100.00
2022-07-31T04:48:58.505Z,100.00
2022-07-31T04:51:29.677Z,100.00
2022-07-31T04:53:56.770Z,100.00
2022-07-31T04:56:33.778Z,100.00
2022-07-31T04:59:07.012Z,100.00
2022-07-31T05:01:55.685Z,100.00
2022-07-31T05:04:32.440Z,100.00
2022-07-31T05:06:59.534Z,100.00
2022-07-31T05:09:36.336Z,100.00
2022-07-31T05:12:05.492Z,100.00
2022-07-31T05:14:36.063Z,100.00
2022-07-31T05:17:12.155Z,100.00
2022-07-31T05:19:45.084Z,100.00
2022-07-31T05:22:29.297Z,100.00
2022-07-31T05:25:05.771Z,100.00
2022-07-31T05:27:50.068Z,100.00
2022-07-31T05:30:29.798Z,100.00
2022-07-31T05:33:05.713Z,100.00
2022-07-31T05:35:34.866Z,100.00
2022-07-31T05:38:13.132Z,100.00
2022-07-31T05:40:40.225Z,100.00
2022-07-31T05:43:35.527Z,100.00
2022-07-31T05:46:14.876Z,100.00
2022-07-31T05:49:03.878Z,100.00
2022-07-31T05:51:34.270Z,100.00
2022-07-31T05:54:01.230Z,100.00
2022-07-31T05:56:35.420Z,100.00
2022-07-31T05:59:02.422Z,100.00
2022-07-31T06:01:32.792Z,100.00
2022-07-31T06:03:59.965Z,100.00
2022-07-31T06:06:33.307Z,100.00
2022-07-31T06:09:04.416Z,100.00
2022-07-31T06:11:42.765Z,100.00
2022-07-31T06:14:11.911Z,100.00
2022-07-31T06:16:40.076Z,100.00
2022-07-31T06:19:08.114Z,100.00
2022-07-31T06:21:35.183Z,100.00
2022-07-31T06:24:03.362Z,100.00
2022-07-31T06:26:38.456Z,100.00
2022-07-31T06:29:12.510Z,100.00
2022-07-31T06:31:39.455Z,100.00
2022-07-31T06:34:06.490Z,100.00
2022-07-31T06:36:36.524Z,100.00
2022-07-31T06:39:05.799Z,100.00
2022-07-31T06:41:47.662Z,100.00
2022-07-31T06:44:18.688Z,100.00
2022-07-31T06:46:52.724Z,100.00
2022-07-31T06:49:19.869Z,100.00
2022-07-31T06:51:47.955Z,100.00
2022-07-31T06:54:15.216Z,100.00
2022-07-31T06:56:43.354Z,100.00
2022-07-31T06:59:10.608Z,100.00
2022-07-31T07:01:39.167Z,100.00
2022-07-31T07:04:06.279Z,100.00
2022-07-31T07:06:33.347Z,100.00
2022-07-31T07:09:00.386Z,100.00
2022-07-31T07:11:27.568Z,100.00
2022-07-31T07:13:54.564Z,100.00
2022-07-31T07:16:28.622Z,100.00
2022-07-31T07:19:03.192Z,100.00
2022-07-31T07:21:31.258Z,100.00
2022-07-31T07:23:58.510Z,100.00
2022-07-31T07:26:28.494Z,100.00
2022-07-31T07:28:58.159Z,100.00
2022-07-31T07:31:56.080Z,100.00
2022-07-31T07:34:36.134Z,100.00
2022-07-31T07:37:03.177Z,100.00
2022-07-31T07:39:33.657Z,100.00
2022-07-31T07:42:03.035Z,100.00
2022-07-31T07:44:30.274Z,100.00
2022-07-31T07:46:58.350Z,100.00
2022-07-31T07:49:36.242Z,100.00
2022-07-31T07:55:54.424Z,100.00
2022-07-31T07:58:27.528Z,100.00
2022-07-31T08:01:07.879Z,100.00
2022-07-31T08:03:49.290Z,100.00
2022-07-31T08:06:26.618Z,100.00
2022-07-31T08:08:54.986Z,100.00
2022-07-31T08:11:23.236Z,100.00
2022-07-31T08:13:53.430Z,100.00
2022-07-31T08:16:20.924Z,100.00
2022-07-31T08:18:51.732Z,100.00
2022-07-31T08:21:31.143Z,100.00
2022-07-31T08:23:58.229Z,100.00
2022-07-31T08:26:28.112Z,100.00
2022-07-31T08:28:57.830Z,100.00
2022-07-31T08:31:26.085Z,100.00
2022-07-31T08:34:00.180Z,100.00
2022-07-31T08:36:37.814Z,100.00
2022-07-31T08:39:17.730Z,100.00
2022-07-31T08:42:05.373Z,100.00
2022-07-31T08:44:37.223Z,100.00
2022-07-31T08:47:15.482Z,100.00
2022-07-31T08:50:13.252Z,100.00
2022-07-31T08:52:42.141Z,100.00
2022-07-31T08:55:24.798Z,100.00
2022-07-31T08:58:03.602Z,100.00
2022-07-31T09:00:33.630Z,100.00
2022-07-31T09:03:03.141Z,100.00
2022-07-31T09:05:42.073Z,100.00
2022-07-31T09:08:15.891Z,100.00
2022-07-31T09:10:47.714Z,100.00
2022-07-31T09:13:25.556Z,100.00
2022-07-31T09:15:58.193Z,100.00
2022-07-31T09:18:30.347Z,100.00
2022-07-31T09:21:10.655Z,100.00
2022-07-31T09:24:01.372Z,100.00
2022-07-31T09:27:14.796Z,100.00
2022-07-31T09:33:33.500Z,100.00
2022-07-31T09:36:01.227Z,100.00
2022-07-31T09:38:59.919Z,100.00
2022-07-31T09:42:02.107Z,100.00
2022-07-31T09:44:47.871Z,100.00
2022-07-31T09:47:56.187Z,100.00
2022-07-31T09:51:00.491Z,100.00
2022-07-31T09:53:46.327Z,100.00
2022-07-31T09:59:54.329Z,100.00
2022-07-31T10:03:16.239Z,100.00
2022-07-31T10:06:00.423Z,100.00
2022-07-31T10:08:54.160Z,100.00
2022-07-31T10:11:25.058Z,100.00
2022-07-31T10:17:46.508Z,100.00
2022-07-31T10:20:17.828Z,100.00
2022-07-31T10:26:44.558Z,100.00
2022-07-31T10:29:36.449Z,100.00
2022-07-31T10:32:20.142Z,99.57
2022-07-31T10:35:00.988Z,99.30
2022-07-31T10:38:10.851Z,99.42
2022-07-31T10:41:03.870Z,99.10
2022-07-31T10:47:21.524Z,98.50
2022-07-31T10:50:20.711Z,96.94
2022-07-31T10:52:56.173Z,95.75
2022-07-31T10:55:32.769Z,93.91
2022-07-31T10:58:14.271Z,93.01
2022-07-31T11:00:43.684Z,91.15
2022-07-31T11:03:24.315Z,88.61
2022-07-31T11:06:00.920Z,88.60
2022-07-31T11:08:40.550Z,88.16
2022-07-31T11:11:08.691Z,89.09
2022-07-31T11:13:49.791Z,87.86
2022-07-31T11:16:24.926Z,87.69
2022-07-31T11:19:05.367Z,83.79
2022-07-31T11:22:31.050Z,85.41
2022-07-31T11:24:58.869Z,82.01
2022-07-31T11:27:31.456Z,82.06
2022-07-31T11:30:13.113Z,81.51
2022-07-31T11:32:53.277Z,80.04
2022-07-31T11:35:30.795Z,80.84
2022-07-31T11:38:00.066Z,81.58
2022-07-31T11:40:28.326Z,79.45
2022-07-31T11:43:24.334Z,79.11
2022-07-31T11:45:50.193Z,77.50
2022-07-31T11:48:39.064Z,75.76
2022-07-31T11:51:09.241Z,76.44
2022-07-31T11:53:42.830Z,78.39
2022-07-31T11:56:10.869Z,76.63
2022-07-31T11:58:39.061Z,76.61
2022-07-31T12:01:06.134Z,76.38
2022-07-31T12:03:38.578Z,75.33
2022-07-31T12:06:07.566Z,75.41
2022-07-31T12:08:36.337Z,74.53
2022-07-31T12:11:05.980Z,75.06
2022-07-31T12:13:36.898Z,73.16
2022-07-31T12:16:09.668Z,73.27
2022-07-31T12:18:59.624Z,72.13
2022-07-31T12:22:13.155Z,71.15
2022-07-31T12:24:40.797Z,71.03
2022-07-31T12:27:09.542Z,71.63
2022-07-31T12:29:40.686Z,71.54
2022-07-31T12:32:08.485Z,69.81
2022-07-31T12:34:42.660Z,69.35
2022-07-31T12:37:19.395Z,67.77
2022-07-31T12:39:59.533Z,66.26
2022-07-31T12:42:41.306Z,65.55
2022-07-31T12:45:19.832Z,62.28
2022-07-31T12:47:53.794Z,61.34
2022-07-31T12:50:23.483Z,62.36
2022-07-31T12:52:51.997Z,61.20
2022-07-31T12:55:19.901Z,60.19
2022-07-31T12:57:50.859Z,59.16
2022-07-31T13:00:24.284Z,58.88
2022-07-31T13:02:57.614Z,58.38
2022-07-31T13:05:26.288Z,57.87
2022-07-31T13:07:54.558Z,57.83
2022-07-31T13:10:25.064Z,57.72
2022-07-31T13:13:00.863Z,57.98
2022-07-31T13:15:31.984Z,56.07
2022-07-31T13:18:05.385Z,56.90
2022-07-31T13:20:33.571Z,56.08
2022-07-31T13:23:02.471Z,56.80
2022-07-31T13:25:33.394Z,57.53
2022-07-31T13:28:04.828Z,56.21
2022-07-31T13:30:33.036Z,57.33
2022-07-31T13:33:00.069Z,53.84
2022-07-31T13:35:29.895Z,54.04
2022-07-31T13:38:03.128Z,54.25
2022-07-31T13:40:48.588Z,55.15
2022-07-31T13:43:25.448Z,54.75
2022-07-31T13:45:54.531Z,53.44
2022-07-31T13:48:21.589Z,54.29
2022-07-31T13:50:49.614Z,52.98
2022-07-31T13:53:22.839Z,52.48
2022-07-31T13:55:50.464Z,53.73
2022-07-31T13:58:18.049Z,51.70
2022-07-31T14:00:45.077Z,52.35
2022-07-31T14:03:15.209Z,52.39
2022-07-31T14:05:48.007Z,53.51
2022-07-31T14:08:32.568Z,53.07
2022-07-31T14:11:04.835Z,51.94
2022-07-31T14:13:47.156Z,53.28
2022-07-31T14:16:17.249Z,53.77
2022-07-31T14:18:55.736Z,52.80
2022-07-31T14:21:35.479Z,51.36
2022-07-31T14:24:07.624Z,51.25
2022-07-31T14:26:48.783Z,50.45
2022-07-31T14:29:19.144Z,52.00
2022-07-31T14:32:00.436Z,52.17
2022-07-31T14:34:37.525Z,51.42
2022-07-31T14:37:05.271Z,48.45
2022-07-31T14:39:34.661Z,50.52
2022-07-31T14:42:03.062Z,49.80
2022-07-31T14:44:48.587Z,48.62
2022-07-31T14:47:40.077Z,47.44
2022-07-31T14:50:19.040Z,45.66
2022-07-31T14:53:01.862Z,46.39
2022-07-31T14:55:35.303Z,46.22
2022-07-31T14:58:02.452Z,47.03
2022-07-31T15:00:32.619Z,47.38
2022-07-31T15:03:05.589Z,45.91
2022-07-31T15:06:40.036Z,45.82
2022-07-31T15:08:29.370Z,46.56
2022-07-31T15:10:56.421Z,45.30
2022-07-31T15:13:23.602Z,46.48
2022-07-31T15:16:01.028Z,45.12
2022-07-31T15:19:00.963Z,45.76
2022-07-31T15:21:28.041Z,44.86
2022-07-31T15:23:57.189Z,44.36
2022-07-31T15:26:32.391Z,42.97
2022-07-31T15:29:00.435Z,43.82
2022-07-31T15:31:27.682Z,44.64
2022-07-31T15:33:54.942Z,45.01
2022-07-31T15:36:29.526Z,43.94
2022-07-31T15:39:04.153Z,45.03
2022-07-31T15:41:53.299Z,45.35
2022-07-31T15:44:23.371Z,43.16
2022-07-31T15:47:00.311Z,43.03
2022-07-31T15:49:44.127Z,42.77
2022-07-31T15:52:18.591Z,43.74
2022-07-31T15:54:51.791Z,44.58
2022-07-31T15:57:29.464Z,43.81
2022-07-31T16:00:00.830Z,44.36
2022-07-31T16:02:31.313Z,43.17
2022-07-31T16:05:21.704Z,42.79
2022-07-31T16:08:28.538Z,42.44
2022-07-31T16:10:56.573Z,42.67
2022-07-31T16:13:42.285Z,41.49
2022-07-31T16:16:22.409Z,42.13
2022-07-31T16:18:50.427Z,42.36
2022-07-31T16:21:21.715Z,42.20
2022-07-31T16:23:58.915Z,42.38
2022-07-31T16:26:27.060Z,41.80
2022-07-31T16:28:56.318Z,42.34
2022-07-31T16:31:34.507Z,42.83
2022-07-31T16:34:15.753Z,41.11
2022-07-31T16:36:57.056Z,41.17
2022-07-31T16:39:24.220Z,40.16
2022-07-31T16:41:56.684Z,41.14
2022-07-31T16:44:25.960Z,41.25
2022-07-31T16:46:55.026Z,41.96
2022-07-31T16:49:35.655Z,41.58
2022-07-31T16:52:06.834Z,42.06
2022-07-31T16:54:34.348Z,42.52
2022-07-31T16:57:01.433Z,42.91
2022-07-31T16:59:57.342Z,44.13
2022-07-31T17:02:28.087Z,43.58
2022-07-31T17:05:25.961Z,43.92
2022-07-31T17:07:54.961Z,44.45
2022-07-31T17:10:33.551Z,44.95
2022-07-31T17:13:36.555Z,44.97
2022-07-31T17:16:09.745Z,44.65
2022-07-31T17:18:40.769Z,45.53
2022-07-31T17:21:38.524Z,45.86
2022-07-31T17:24:16.264Z,45.76
2022-07-31T17:26:52.437Z,46.53
2022-07-31T17:29:20.390Z,46.32
2022-07-31T17:32:01.088Z,46.98
2022-07-31T17:34:35.747Z,47.48
2022-07-31T17:37:20.787Z,48.53
2022-07-31T17:39:57.666Z,48.32
2022-07-31T17:42:26.645Z,48.59
2022-07-31T17:45:02.835Z,48.78
2022-07-31T17:47:43.430Z,48.93
2022-07-31T17:50:12.881Z,49.18
2022-07-31T17:53:02.802Z,49.48
2022-07-31T17:55:33.186Z,49.80
2022-07-31T17:58:08.560Z,49.68
2022-07-31T18:00:41.629Z,50.36
2022-07-31T18:03:17.736Z,50.43
2022-07-31T18:05:57.998Z,51.04
2022-07-31T18:08:34.286Z,50.93
2022-07-31T18:11:08.746Z,51.36
2022-07-31T18:13:48.148Z,52.19
2022-07-31T18:16:25.569Z,52.44
2022-07-31T18:18:54.501Z,52.42
2022-07-31T18:21:22.946Z,53.05
2022-07-31T18:24:06.381Z,53.74
2022-07-31T18:26:35.545Z,55.07
2022-07-31T18:29:05.368Z,57.11
2022-07-31T18:31:35.907Z,60.62
2022-07-31T18:34:08.401Z,61.73
2022-07-31T18:36:37.940Z,62.30
2022-07-31T18:39:05.996Z,64.07
2022-07-31T18:41:40.228Z,64.41
2022-07-31T18:44:32.976Z,66.65
2022-07-31T18:47:30.563Z,67.86
2022-07-31T18:50:59.942Z,71.18
2022-07-31T18:52:50.295Z,71.55
2022-07-31T18:55:17.783Z,73.78
2022-07-31T18:57:45.003Z,75.48
2022-07-31T19:00:15.414Z,75.10
2022-07-31T19:02:47.607Z,74.45
2022-07-31T19:05:21.681Z,74.77
2022-07-31T19:07:49.564Z,78.07
2022-07-31T19:10:29.601Z,79.45
2022-07-31T19:13:01.120Z,80.48
2022-07-31T19:15:38.168Z,80.95
2022-07-31T19:18:25.084Z,79.37
2022-07-31T19:21:17.740Z,79.01
2022-07-31T19:23:49.041Z,80.16
2022-07-31T19:26:30.117Z,80.49
2022-07-31T19:29:07.450Z,81.83
2022-07-31T19:31:36.550Z,82.08
2022-07-31T19:34:05.767Z,84.53
2022-07-31T19:36:40.393Z,86.20
2022-07-31T19:39:20.903Z,88.32
2022-07-31T19:42:11.079Z,87.28
2022-07-31T19:44:37.054Z,86.76
2022-07-31T19:47:04.445Z,86.50
2022-07-31T19:49:54.783Z,86.52
2022-07-31T19:52:22.539Z,86.87
2022-07-31T19:54:49.884Z,87.04
2022-07-31T19:57:19.156Z,85.55
2022-07-31T19:59:48.555Z,86.99
2022-07-31T20:02:24.586Z,86.69
2022-07-31T20:04:58.627Z,87.96
2022-07-31T20:07:43.004Z,87.79
2022-07-31T20:10:10.624Z,87.64
2022-07-31T20:12:41.174Z,88.86
2022-07-31T20:15:11.135Z,89.14
2022-07-31T20:17:39.251Z,89.74
2022-07-31T20:20:15.276Z,90.13
2022-07-31T20:23:05.882Z,90.23
2022-07-31T20:25:40.531Z,90.74
2022-07-31T20:28:09.766Z,91.30
2022-07-31T20:30:49.355Z,90.79
2022-07-31T20:33:21.899Z,90.65
2022-07-31T20:35:53.152Z,90.16
2022-07-31T20:38:25.419Z,91.59
2022-07-31T20:41:18.441Z,90.86
2022-07-31T20:44:23.284Z,91.40
2022-07-31T20:46:57.734Z,91.83
2022-07-31T20:49:34.812Z,91.83
2022-07-31T20:52:05.704Z,93.24
2022-07-31T20:54:38.983Z,93.24
2022-07-31T20:57:07.017Z,93.59
2022-07-31T20:59:45.320Z,93.74
2022-07-31T21:02:15.487Z,93.71
2022-07-31T21:04:43.532Z,93.59
2022-07-31T21:07:14.710Z,94.32
2022-07-31T21:09:49.022Z,95.08
2022-07-31T21:12:16.067Z,96.02
2022-07-31T21:14:44.050Z,96.80
2022-07-31T21:17:12.086Z,97.07
2022-07-31T21:19:40.199Z,97.46
2022-07-31T21:22:10.599Z,98.51
2022-07-31T21:24:37.814Z,98.50
2022-07-31T21:27:07.224Z,98.79
2022-07-31T21:29:34.683Z,100.00
2022-07-31T21:32:02.548Z,100.00
2022-07-31T21:34:30.133Z,100.00
2022-07-31T21:37:07.685Z,100.00
2022-07-31T21:39:36.087Z,100.00
2022-07-31T21:42:07.017Z,100.00
2022-07-31T21:44:35.641Z,100.00
2022-07-31T21:47:06.785Z,100.00
2022-07-31T21:49:51.527Z,100.00
2022-07-31T21:52:46.104Z,100.00
2022-07-31T21:55:19.344Z,100.00
2022-07-31T21:58:00.290Z,100.00
2022-07-31T22:00:30.539Z,100.00
2022-07-31T22:03:54.965Z,100.00
2022-07-31T22:06:41.742Z,100.00
2022-07-31T22:09:58.112Z,100.00
2022-07-31T22:12:25.365Z,100.00
2022-07-31T22:14:54.998Z,100.00
2022-07-31T22:17:31.949Z,100.00
2022-07-31T22:20:09.769Z,100.00
2022-07-31T22:22:37.574Z,100.00
2022-07-31T22:25:06.658Z,100.00
2022-07-31T22:27:57.608Z,100.00
2022-07-31T22:30:41.270Z,100.00
2022-07-31T22:33:10.664Z,100.00
2022-07-31T22:35:40.977Z,100.00
2022-07-31T22:38:11.347Z,100.00
2022-07-31T22:40:44.119Z,100.00
2022-07-31T22:44:10.588Z,100.00
2022-07-31T22:46:29.590Z,100.00
2022-07-31T22:49:00.425Z,100.00
2022-07-31T22:51:38.402Z,100.00
2022-07-31T22:54:50.742Z,100.00
2022-07-31T22:57:18.361Z,100.00
2022-07-31T22:59:46.986Z,100.00
2022-07-31T23:02:18.330Z,100.00
2022-07-31T23:06:03.558Z,100.00
2022-07-31T23:08:37.958Z,100.00
2022-07-31T23:11:33.807Z,100.00
2022-07-31T23:14:05.239Z,100.00
2022-07-31T23:16:34.396Z,100.00
2022-07-31T23:19:17.521Z,100.00
2022-07-31T23:22:30.747Z,100.00
2022-07-31T23:25:02.976Z,100.00
2022-07-31T23:27:38.233Z,100.00
2022-07-31T23:30:09.910Z,100.00
2022-07-31T23:32:39.128Z,100.00
2022-07-31T23:35:12.228Z,100.00
2022-07-31T23:38:14.350Z,100.00
2022-07-31T23:40:43.471Z,100.00
2022-07-31T23:43:20.923Z,100.00
2022-07-31T23:45:56.406Z,100.00
2022-07-31T23:48:30.041Z,100.00
2022-07-31T23:51:08.234Z,100.00
2022-07-31T23:53:42.334Z,100.00
2022-07-31T23:56:19.175Z,100.00
2022-07-31T23:58:52.693Z,100.00
